sensor_id;sensor_type;location;lat;lon;timestamp;pressure;altitude;pressure_sealevel;temperature;humidity
25658;BME280;13517;59.320;18.042;2024-01-30T00:00:35;102013.16;;;2.29;100.00
25658;BME280;13517;59.320;18.042;2024-01-30T00:03:01;102084.84;;;2.67;100.00
25658;BME280;13517;59.320;18.042;2024-01-30T00:05:26;102031.84;;;2.29;100.00
25658;BME280;13517;59.320;18.042;2024-01-30T00:07:52;101992.94;;;2.07;100.00
25658;BME280;13517;59.320;18.042;2024-01-30T00:10:17;102005.38;;;2.06;100.00
25658;BME280;13517;59.320;18.042;2024-01-30T00:12:42;102031.94;;;2.20;100.00
25658;BME280;13517;59.320;18.042;2024-01-30T00:15:08;102039.88;;;2.23;100.00
25658;BME280;13517;59.320;18.042;2024-01-30T00:17:36;102025.75;;;2.12;100.00
25658;BME280;13517;59.320;18.042;2024-01-30T00:20:02;102063.84;;;2.26;100.00
25658;BME280;13517;59.320;18.042;2024-01-30T00:22:33;102038.25;;;2.07;100.00
25658;BME280;13517;59.320;18.042;2024-01-30T00:24:58;102043.50;;;2.16;100.00
25658;BME280;13517;59.320;18.042;2024-01-30T00:27:24;102015.22;;;1.96;100.00
25658;BME280;13517;59.320;18.042;2024-01-30T00:29:49;102094.03;;;2.31;100.00
25658;BME280;13517;59.320;18.042;2024-01-30T00:32:15;102083.50;;;2.17;100.00
25658;BME280;13517;59.320;18.042;2024-01-30T00:34:41;102084.31;;;2.24;100.00
25658;BME280;13517;59.320;18.042;2024-01-30T00:37:07;102090.53;;;2.25;100.00
25658;BME280;13517;59.320;18.042;2024-01-30T00:39:32;102019.81;;;1.79;100.00
25658;BME280;13517;59.320;18.042;2024-01-30T00:41:58;102051.66;;;1.96;100.00
25658;BME280;13517;59.320;18.042;2024-01-30T00:44:23;102086.13;;;2.19;100.00
25658;BME280;13517;59.320;18.042;2024-01-30T00:46:49;102077.31;;;2.11;100.00
25658;BME280;13517;59.320;18.042;2024-01-30T00:49:15;102080.78;;;2.19;100.00
25658;BME280;13517;59.320;18.042;2024-01-30T00:51:40;102037.41;;;1.98;100.00
25658;BME280;13517;59.320;18.042;2024-01-30T00:54:05;102038.34;;;1.94;100.00
25658;BME280;13517;59.320;18.042;2024-01-30T00:56:31;102086.97;;;2.26;100.00
25658;BME280;13517;59.320;18.042;2024-01-30T00:58:57;102087.88;;;2.25;100.00
25658;BME280;13517;59.320;18.042;2024-01-30T01:01:22;102048.91;;;2.07;100.00
25658;BME280;13517;59.320;18.042;2024-01-30T01:03:48;102054.28;;;2.00;100.00
25658;BME280;13517;59.320;18.042;2024-01-30T01:06:13;102011.00;;;1.70;100.00
25658;BME280;13517;59.320;18.042;2024-01-30T01:08:39;102070.25;;;2.02;100.00
25658;BME280;13517;59.320;18.042;2024-01-30T01:11:05;102057.03;;;1.88;100.00
25658;BME280;13517;59.320;18.042;2024-01-30T01:13:30;102089.78;;;2.07;100.00
25658;BME280;13517;59.320;18.042;2024-01-30T01:15:55;102097.81;;;2.01;100.00
25658;BME280;13517;59.320;18.042;2024-01-30T01:18:21;102054.47;;;1.72;100.00
25658;BME280;13517;59.320;18.042;2024-01-30T01:20:46;102065.06;;;1.82;100.00
25658;BME280;13517;59.320;18.042;2024-01-30T01:23:12;101979.28;;;1.30;100.00
25658;BME280;13517;59.320;18.042;2024-01-30T01:25:37;102054.44;;;1.75;100.00
25658;BME280;13517;59.320;18.042;2024-01-30T01:28:03;102044.69;;;1.74;100.00
25658;BME280;13517;59.320;18.042;2024-01-30T01:30:28;102056.22;;;1.76;100.00
25658;BME280;13517;59.320;18.042;2024-01-30T01:32:54;102034.13;;;1.59;100.00
25658;BME280;13517;59.320;18.042;2024-01-30T01:35:26;102081.06;;;1.82;100.00
25658;BME280;13517;59.320;18.042;2024-01-30T01:37:53;102082.94;;;1.70;100.00
25658;BME280;13517;59.320;18.042;2024-01-30T01:40:25;102074.03;;;1.71;100.00
25658;BME280;13517;59.320;18.042;2024-01-30T01:42:51;102027.97;;;1.47;100.00
25658;BME280;13517;59.320;18.042;2024-01-30T01:45:20;102077.53;;;1.80;100.00
25658;BME280;13517;59.320;18.042;2024-01-30T01:47:48;102053.66;;;1.62;100.00
25658;BME280;13517;59.320;18.042;2024-01-30T01:50:15;102068.72;;;1.68;100.00
25658;BME280;13517;59.320;18.042;2024-01-30T01:52:44;102084.66;;;1.74;100.00
25658;BME280;13517;59.320;18.042;2024-01-30T01:55:10;102016.53;;;1.27;100.00
25658;BME280;13517;59.320;18.042;2024-01-30T01:57:36;102047.56;;;1.37;100.00
25658;BME280;13517;59.320;18.042;2024-01-30T02:00:02;102050.25;;;1.39;100.00
25658;BME280;13517;59.320;18.042;2024-01-30T02:02:30;102031.69;;;1.18;100.00
25658;BME280;13517;59.320;18.042;2024-01-30T02:04:57;102052.06;;;1.29;100.00
25658;BME280;13517;59.320;18.042;2024-01-30T02:07:24;102013.97;;;1.11;100.00
25658;BME280;13517;59.320;18.042;2024-01-30T02:09:49;101982.09;;;0.95;100.00
25658;BME280;13517;59.320;18.042;2024-01-30T02:12:14;102066.22;;;1.39;100.00
25658;BME280;13517;59.320;18.042;2024-01-30T02:14:47;102079.50;;;1.43;100.00
25658;BME280;13517;59.320;18.042;2024-01-30T02:17:13;102044.97;;;1.17;100.00
25658;BME280;13517;59.320;18.042;2024-01-30T02:19:39;102063.56;;;1.31;100.00
25658;BME280;13517;59.320;18.042;2024-01-30T02:22:05;102049.41;;;1.24;100.00
25658;BME280;13517;59.320;18.042;2024-01-30T02:24:30;102037.03;;;1.09;100.00
25658;BME280;13517;59.320;18.042;2024-01-30T02:26:56;102019.34;;;1.02;100.00
25658;BME280;13517;59.320;18.042;2024-01-30T02:29:21;102068.00;;;1.30;100.00
25658;BME280;13517;59.320;18.042;2024-01-30T02:31:47;101999.84;;;0.93;100.00
25658;BME280;13517;59.320;18.042;2024-01-30T02:34:13;102029.03;;;1.14;100.00
25658;BME280;13517;59.320;18.042;2024-01-30T02:36:42;102024.63;;;1.06;100.00
25658;BME280;13517;59.320;18.042;2024-01-30T02:39:07;102013.13;;;1.01;100.00
25658;BME280;13517;59.320;18.042;2024-01-30T02:41:33;102067.13;;;1.36;100.00
25658;BME280;13517;59.320;18.042;2024-01-30T02:43:58;102011.34;;;0.99;100.00
25658;BME280;13517;59.320;18.042;2024-01-30T02:46:24;102044.13;;;1.10;100.00
25658;BME280;13517;59.320;18.042;2024-01-30T02:48:49;102006.09;;;0.86;100.00
25658;BME280;13517;59.320;18.042;2024-01-30T02:51:15;102027.38;;;0.92;100.00
25658;BME280;13517;59.320;18.042;2024-01-30T02:53:40;102053.91;;;1.05;100.00
25658;BME280;13517;59.320;18.042;2024-01-30T02:56:06;102082.25;;;1.18;100.00
25658;BME280;13517;59.320;18.042;2024-01-30T02:58:34;102049.53;;;0.94;100.00
25658;BME280;13517;59.320;18.042;2024-01-30T03:01:00;102021.19;;;0.81;100.00
25658;BME280;13517;59.320;18.042;2024-01-30T03:03:25;102084.06;;;1.08;100.00
25658;BME280;13517;59.320;18.042;2024-01-30T03:05:51;102084.97;;;1.09;100.00
25658;BME280;13517;59.320;18.042;2024-01-30T03:08:16;102054.84;;;0.91;100.00
25658;BME280;13517;59.320;18.042;2024-01-30T03:10:41;102053.06;;;0.92;100.00
25658;BME280;13517;59.320;18.042;2024-01-30T03:13:07;102073.44;;;0.99;100.00
25658;BME280;13517;59.320;18.042;2024-01-30T03:15:32;102054.00;;;0.86;100.00
25658;BME280;13517;59.320;18.042;2024-01-30T03:17:58;102017.66;;;0.66;100.00
25658;BME280;13517;59.320;18.042;2024-01-30T03:20:23;102047.78;;;0.81;100.00
25658;BME280;13517;59.320;18.042;2024-01-30T03:22:49;102045.09;;;0.78;100.00
25658;BME280;13517;59.320;18.042;2024-01-30T03:25:14;102046.03;;;0.67;100.00
25658;BME280;13517;59.320;18.042;2024-01-30T03:27:40;102034.50;;;0.62;100.00
25658;BME280;13517;59.320;18.042;2024-01-30T03:30:06;102074.38;;;0.84;100.00
25658;BME280;13517;59.320;18.042;2024-01-30T03:32:31;101975.19;;;0.26;100.00
25658;BME280;13517;59.320;18.042;2024-01-30T03:34:57;102071.75;;;0.72;100.00
25658;BME280;13517;59.320;18.042;2024-01-30T03:37:23;102054.91;;;0.52;100.00
25658;BME280;13517;59.320;18.042;2024-01-30T03:39:49;102019.50;;;0.39;100.00
25658;BME280;13517;59.320;18.042;2024-01-30T03:42:14;102062.03;;;0.52;100.00
25658;BME280;13517;59.320;18.042;2024-01-30T03:44:40;102086.81;;;0.73;100.00
25658;BME280;13517;59.320;18.042;2024-01-30T03:47:05;102076.19;;;0.63;100.00
25658;BME280;13517;59.320;18.042;2024-01-30T03:49:30;102067.34;;;0.58;100.00
25658;BME280;13517;59.320;18.042;2024-01-30T03:51:56;102009.75;;;0.21;100.00
25658;BME280;13517;59.320;18.042;2024-01-30T03:54:21;102046.06;;;0.46;100.00
25658;BME280;13517;59.320;18.042;2024-01-30T03:56:47;102054.91;;;0.54;100.00
25658;BME280;13517;59.320;18.042;2024-01-30T03:59:12;102034.53;;;0.47;100.00
25658;BME280;13517;59.320;18.042;2024-01-30T04:01:38;102054.91;;;0.59;100.00
25658;BME280;13517;59.320;18.042;2024-01-30T04:04:03;102077.06;;;0.72;100.00
25658;BME280;13517;59.320;18.042;2024-01-30T04:06:29;102085.03;;;0.83;100.00
25658;BME280;13517;59.320;18.042;2024-01-30T04:08:54;102021.25;;;0.50;100.00
25658;BME280;13517;59.320;18.042;2024-01-30T04:11:19;102053.13;;;0.67;100.00
25658;BME280;13517;59.320;18.042;2024-01-30T04:13:45;102061.09;;;0.70;100.00
25658;BME280;13517;59.320;18.042;2024-01-30T04:16:21;102097.41;;;0.91;100.00
25658;BME280;13517;59.320;18.042;2024-01-30T04:18:48;102027.44;;;0.63;100.00
25658;BME280;13517;59.320;18.042;2024-01-30T04:21:13;102081.47;;;0.96;100.00
25658;BME280;13517;59.320;18.042;2024-01-30T04:23:40;102088.53;;;0.95;100.00
25658;BME280;13517;59.320;18.042;2024-01-30T04:26:05;102093.81;;;1.05;100.00
25658;BME280;13517;59.320;18.042;2024-01-30T04:28:31;102065.50;;;0.82;100.00
25658;BME280;13517;59.320;18.042;2024-01-30T04:30:57;102057.56;;;0.71;100.00
25658;BME280;13517;59.320;18.042;2024-01-30T04:33:22;102097.41;;;0.98;100.00
25658;BME280;13517;59.320;18.042;2024-01-30T04:35:47;102075.22;;;0.94;100.00
25658;BME280;13517;59.320;18.042;2024-01-30T04:38:13;102048.66;;;0.83;100.00
25658;BME280;13517;59.320;18.042;2024-01-30T04:40:40;101994.66;;;0.53;100.00
25658;BME280;13517;59.320;18.042;2024-01-30T04:43:05;102076.97;;;1.01;100.00
25658;BME280;13517;59.320;18.042;2024-01-30T04:45:30;102091.16;;;1.13;100.00
25658;BME280;13517;59.320;18.042;2024-01-30T04:47:56;102083.22;;;1.03;100.00
25658;BME280;13517;59.320;18.042;2024-01-30T04:50:21;102067.25;;;0.94;100.00
25658;BME280;13517;59.320;18.042;2024-01-30T04:52:47;102095.63;;;1.03;100.00
25658;BME280;13517;59.320;18.042;2024-01-30T04:55:12;102040.69;;;0.71;100.00
25658;BME280;13517;59.320;18.042;2024-01-30T04:57:38;102088.53;;;0.97;100.00
25658;BME280;13517;59.320;18.042;2024-01-30T05:00:03;102067.28;;;0.85;100.00
25658;BME280;13517;59.320;18.042;2024-01-30T05:02:30;102083.22;;;0.95;100.00
25658;BME280;13517;59.320;18.042;2024-01-30T05:04:55;102046.03;;;0.75;100.00
25658;BME280;13517;59.320;18.042;2024-01-30T05:07:21;102065.50;;;0.84;100.00
25658;BME280;13517;59.320;18.042;2024-01-30T05:09:47;102060.19;;;0.88;100.00
25658;BME280;13517;59.320;18.042;2024-01-30T05:12:13;101958.34;;;0.35;100.00
25658;BME280;13517;59.320;18.042;2024-01-30T05:14:38;102050.44;;;0.87;100.00
25658;BME280;13517;59.320;18.042;2024-01-30T05:17:03;102043.31;;;0.81;100.00
25658;BME280;13517;59.320;18.042;2024-01-30T05:19:29;102076.97;;;1.01;100.00
25658;BME280;13517;59.320;18.042;2024-01-30T05:21:54;102065.50;;;0.94;100.00
25658;BME280;13517;59.320;18.042;2024-01-30T05:24:20;102069.94;;;0.92;100.00
25658;BME280;13517;59.320;18.042;2024-01-30T05:26:45;102036.28;;;0.73;100.00
25658;BME280;13517;59.320;18.042;2024-01-30T05:29:12;102092.97;;;1.00;100.00
25658;BME280;13517;59.320;18.042;2024-01-30T05:31:37;102052.22;;;0.70;100.00
25658;BME280;13517;59.320;18.042;2024-01-30T05:34:02;102021.25;;;0.51;100.00
25658;BME280;13517;59.320;18.042;2024-01-30T05:36:28;102094.75;;;0.94;100.00
25658;BME280;13517;59.320;18.042;2024-01-30T05:38:53;102095.63;;;0.90;100.00
25658;BME280;13517;59.320;18.042;2024-01-30T05:41:19;102096.53;;;0.94;100.00
25658;BME280;13517;59.320;18.042;2024-01-30T05:43:46;102074.38;;;0.81;100.00
25658;BME280;13517;59.320;18.042;2024-01-30T05:46:11;102059.34;;;0.61;100.00
25658;BME280;13517;59.320;18.042;2024-01-30T05:48:37;102096.56;;;0.78;100.00
25658;BME280;13517;59.320;18.042;2024-01-30T05:51:02;102091.22;;;0.81;100.00
25658;BME280;13517;59.320;18.042;2024-01-30T05:53:29;102045.19;;;0.54;100.00
25658;BME280;13517;59.320;18.042;2024-01-30T05:55:54;102046.94;;;0.56;100.00
25658;BME280;13517;59.320;18.042;2024-01-30T05:58:20;102070.84;;;0.70;100.00
25658;BME280;13517;59.320;18.042;2024-01-30T06:00:46;102011.50;;;0.38;100.00
25658;BME280;13517;59.320;18.042;2024-01-30T06:03:12;102062.84;;;0.74;100.00
25658;BME280;13517;59.320;18.042;2024-01-30T06:05:37;102077.91;;;0.83;100.00
25658;BME280;13517;59.320;18.042;2024-01-30T06:08:03;102005.31;;;0.36;100.00
25658;BME280;13517;59.320;18.042;2024-01-30T06:10:28;102038.09;;;0.53;100.00
25658;BME280;13517;59.320;18.042;2024-01-30T06:12:53;102031.00;;;0.54;100.00
25658;BME280;13517;59.320;18.042;2024-01-30T06:15:19;102004.41;;;0.42;100.00
25658;BME280;13517;59.320;18.042;2024-01-30T06:17:44;102016.81;;;0.58;100.00
25658;BME280;13517;59.320;18.042;2024-01-30T06:20:10;102072.59;;;0.89;100.00
25658;BME280;13517;59.320;18.042;2024-01-30T06:22:35;102047.78;;;0.78;100.00
25658;BME280;13517;59.320;18.042;2024-01-30T06:25:01;102030.97;;;0.68;100.00
25658;BME280;13517;59.320;18.042;2024-01-30T06:27:26;102010.63;;;0.50;100.00
25658;BME280;13517;59.320;18.042;2024-01-30T06:29:52;102050.44;;;0.78;100.00
25658;BME280;13517;59.320;18.042;2024-01-30T06:32:17;102029.19;;;0.62;100.00
25658;BME280;13517;59.320;18.042;2024-01-30T06:34:43;102019.44;;;0.60;100.00
25658;BME280;13517;59.320;18.042;2024-01-30T06:37:09;101967.22;;;0.28;100.00
25658;BME280;13517;59.320;18.042;2024-01-30T06:39:35;101960.16;;;0.20;100.00
25658;BME280;13517;59.320;18.042;2024-01-30T06:42:00;102101.84;;;0.95;100.00
25658;BME280;13517;59.320;18.042;2024-01-30T06:44:26;102083.22;;;0.94;100.00
25658;BME280;13517;59.320;18.042;2024-01-30T06:46:51;101992.00;;;0.42;100.00
25658;BME280;13517;59.320;18.042;2024-01-30T06:49:17;102057.56;;;0.71;100.00
25658;BME280;13517;59.320;18.042;2024-01-30T06:51:43;102036.31;;;0.52;100.00
25658;BME280;13517;59.320;18.042;2024-01-30T06:54:08;102015.06;;;0.37;100.00
25658;BME280;13517;59.320;18.042;2024-01-30T06:56:34;102079.72;;;0.75;100.00
25658;BME280;13517;59.320;18.042;2024-01-30T06:58:59;102072.63;;;0.71;100.00
25658;BME280;13517;59.320;18.042;2024-01-30T07:01:30;102081.47;;;0.82;100.00
25658;BME280;13517;59.320;18.042;2024-01-30T07:03:56;102087.69;;;0.89;100.00
25658;BME280;13517;59.320;18.042;2024-01-30T07:06:23;102026.56;;;0.59;100.00
25658;BME280;13517;59.320;18.042;2024-01-30T07:08:49;102081.47;;;0.85;100.00
25658;BME280;13517;59.320;18.042;2024-01-30T07:11:22;102045.19;;;0.61;100.00
25658;BME280;13517;59.320;18.042;2024-01-30T07:13:49;102055.78;;;0.70;100.00
25658;BME280;13517;59.320;18.042;2024-01-30T07:16:15;102024.78;;;0.58;100.00
25658;BME280;13517;59.320;18.042;2024-01-30T07:18:40;102069.06;;;0.87;100.00
25658;BME280;13517;59.320;18.042;2024-01-30T07:21:06;102037.16;;;0.70;100.00
25658;BME280;13517;59.320;18.042;2024-01-30T07:23:31;102044.25;;;0.73;100.00
25658;BME280;13517;59.320;18.042;2024-01-30T07:25:59;102058.41;;;0.89;100.00
25658;BME280;13517;59.320;18.042;2024-01-30T07:28:24;102023.88;;;0.68;100.00
25658;BME280;13517;59.320;18.042;2024-01-30T07:30:50;102004.38;;;0.52;100.00
25658;BME280;13517;59.320;18.042;2024-01-30T07:33:15;102007.06;;;0.57;100.00
25658;BME280;13517;59.320;18.042;2024-01-30T07:35:41;102038.03;;;0.77;100.00
25658;BME280;13517;59.320;18.042;2024-01-30T07:38:06;101981.38;;;0.44;100.00
25658;BME280;13517;59.320;18.042;2024-01-30T07:40:32;102012.38;;;0.56;100.00
25658;BME280;13517;59.320;18.042;2024-01-30T07:42:58;102024.75;;;0.67;100.00
25658;BME280;13517;59.320;18.042;2024-01-30T07:45:24;102070.78;;;1.04;100.00
25658;BME280;13517;59.320;18.042;2024-01-30T07:47:51;102076.94;;;1.12;100.00
25658;BME280;13517;59.320;18.042;2024-01-30T07:50:17;102028.22;;;0.91;100.00
25658;BME280;13517;59.320;18.042;2024-01-30T07:52:43;102076.94;;;1.20;100.00
25658;BME280;13517;59.320;18.042;2024-01-30T07:55:09;102041.53;;;0.99;100.00
25658;BME280;13517;59.320;18.042;2024-01-30T07:57:34;102022.00;;;0.94;100.00
25658;BME280;13517;59.320;18.042;2024-01-30T08:00:00;102014.06;;;0.86;100.00
25658;BME280;13517;59.320;18.042;2024-01-30T08:02:26;102010.53;;;0.87;100.00
25658;BME280;13517;59.320;18.042;2024-01-30T08:04:51;102019.34;;;1.00;100.00
25658;BME280;13517;59.320;18.042;2024-01-30T08:07:17;101994.56;;;0.87;100.00
25658;BME280;13517;59.320;18.042;2024-01-30T08:09:43;101994.53;;;0.90;100.00
25658;BME280;13517;59.320;18.042;2024-01-30T08:12:09;102039.69;;;1.06;100.00
25658;BME280;13517;59.320;18.042;2024-01-30T08:14:34;102038.81;;;1.12;100.00
25658;BME280;13517;59.320;18.042;2024-01-30T08:16:59;102051.19;;;1.20;100.00
25658;BME280;13517;59.320;18.042;2024-01-30T08:19:25;102042.31;;;1.17;100.00
25658;BME280;13517;59.320;18.042;2024-01-30T08:21:50;102020.16;;;1.15;100.00
25658;BME280;13517;59.320;18.042;2024-01-30T08:24:16;102005.13;;;1.04;100.00
25658;BME280;13517;59.320;18.042;2024-01-30T08:26:41;102031.69;;;1.20;100.00
25658;BME280;13517;59.320;18.042;2024-01-30T08:29:07;101989.16;;;1.01;100.00
25658;BME280;13517;59.320;18.042;2024-01-30T08:31:32;102029.00;;;1.21;100.00
25658;BME280;13517;59.320;18.042;2024-01-30T08:33:58;102031.69;;;1.21;100.00
25658;BME280;13517;59.320;18.042;2024-01-30T08:36:24;102023.69;;;1.17;100.00
25658;BME280;13517;59.320;18.042;2024-01-30T08:38:50;101987.44;;;0.89;100.00
25658;BME280;13517;59.320;18.042;2024-01-30T08:41:15;102040.56;;;1.17;100.00
25658;BME280;13517;59.320;18.042;2024-01-30T08:43:41;102026.38;;;1.14;100.00
25658;BME280;13517;59.320;18.042;2024-01-30T08:46:06;102022.81;;;1.13;100.00
25658;BME280;13517;59.320;18.042;2024-01-30T08:48:32;101975.91;;;0.93;100.00
25658;BME280;13517;59.320;18.042;2024-01-30T08:50:57;102054.69;;;1.32;100.00
25658;BME280;13517;59.320;18.042;2024-01-30T08:53:22;102051.13;;;1.36;100.00
25658;BME280;13517;59.320;18.042;2024-01-30T08:55:48;102019.25;;;1.24;100.00
25658;BME280;13517;59.320;18.042;2024-01-30T08:58:13;102045.75;;;1.45;100.00
25658;BME280;13517;59.320;18.042;2024-01-30T09:00:40;102044.84;;;1.48;100.00
25658;BME280;13517;59.320;18.042;2024-01-30T09:03:06;102044.78;;;1.57;100.00
25658;BME280;13517;59.320;18.042;2024-01-30T09:05:31;102022.66;;;1.51;100.00
25658;BME280;13517;59.320;18.042;2024-01-30T09:07:57;102007.53;;;1.51;100.00
25658;BME280;13517;59.320;18.042;2024-01-30T09:10:22;101957.13;;;1.21;100.00
25658;BME280;13517;59.320;18.042;2024-01-30T09:12:48;102018.16;;;1.57;100.00
25658;BME280;13517;59.320;18.042;2024-01-30T09:15:14;102034.03;;;1.76;100.00
25658;BME280;13517;59.320;18.042;2024-01-30T09:17:40;102027.84;;;1.72;100.00
25658;BME280;13517;59.320;18.042;2024-01-30T09:20:06;102010.06;;;1.76;100.00
25658;BME280;13517;59.320;18.042;2024-01-30T09:22:31;102001.13;;;1.85;100.00
25658;BME280;13517;59.320;18.042;2024-01-30T09:24:57;101982.50;;;1.79;100.00
25658;BME280;13517;59.320;18.042;2024-01-30T09:27:23;101978.03;;;1.81;100.00
25658;BME280;13517;59.320;18.042;2024-01-30T09:29:48;101971.81;;;1.80;100.00
25658;BME280;13517;59.320;18.042;2024-01-30T09:32:14;102021.31;;;2.14;100.00
25658;BME280;13517;59.320;18.042;2024-01-30T09:34:39;102008.03;;;2.04;100.00
25658;BME280;13517;59.320;18.042;2024-01-30T09:37:05;102023.03;;;2.20;100.00
25658;BME280;13517;59.320;18.042;2024-01-30T09:39:30;101977.00;;;1.99;100.00
25658;BME280;13517;59.320;18.042;2024-01-30T09:42:02;101984.06;;;2.04;100.00
25658;BME280;13517;59.320;18.042;2024-01-30T09:44:30;101983.09;;;2.12;100.00
25658;BME280;13517;59.320;18.042;2024-01-30T09:46:56;102000.75;;;2.27;100.00
25658;BME280;13517;59.320;18.042;2024-01-30T09:49:24;101982.13;;;2.19;100.00
25658;BME280;13517;59.320;18.042;2024-01-30T09:51:50;101999.78;;;2.33;100.00
25658;BME280;13517;59.320;18.042;2024-01-30T09:54:18;101998.78;;;2.46;100.00
25658;BME280;13517;59.320;18.042;2024-01-30T09:56:44;101993.38;;;2.55;100.00
25658;BME280;13517;59.320;18.042;2024-01-30T09:59:10;101973.84;;;2.52;100.00
25658;BME280;13517;59.320;18.042;2024-01-30T10:01:36;101995.97;;;2.60;100.00
25658;BME280;13517;59.320;18.042;2024-01-30T10:04:01;101988.03;;;2.52;100.00
25658;BME280;13517;59.320;18.042;2024-01-30T10:06:27;102003.06;;;2.61;100.00
25658;BME280;13517;59.320;18.042;2024-01-30T10:08:53;101980.94;;;2.53;100.00
25658;BME280;13517;59.320;18.042;2024-01-30T10:11:18;101973.88;;;2.47;100.00
25658;BME280;13517;59.320;18.042;2024-01-30T10:13:43;101941.97;;;2.38;100.00
25658;BME280;13517;59.320;18.042;2024-01-30T10:16:09;101945.44;;;2.46;100.00
25658;BME280;13517;59.320;18.042;2024-01-30T10:18:34;101953.44;;;2.44;100.00
25658;BME280;13517;59.320;18.042;2024-01-30T10:21:00;102006.47;;;2.76;100.00
25658;BME280;13517;59.320;18.042;2024-01-30T10:23:26;101979.91;;;2.66;100.00
25658;BME280;13517;59.320;18.042;2024-01-30T10:25:51;101975.44;;;2.67;100.00
25658;BME280;13517;59.320;18.042;2024-01-30T10:28:17;101933.81;;;2.52;100.00
25658;BME280;13517;59.320;18.042;2024-01-30T10:30:43;101950.69;;;2.54;100.00
25658;BME280;13517;59.320;18.042;2024-01-30T10:33:08;101944.38;;;2.59;100.00
25658;BME280;13517;59.320;18.042;2024-01-30T10:35:34;101977.06;;;2.80;100.00
25658;BME280;13517;59.320;18.042;2024-01-30T10:38:00;101917.78;;;2.53;100.00
25658;BME280;13517;59.320;18.042;2024-01-30T10:40:28;101933.66;;;2.64;100.00
25658;BME280;13517;59.320;18.042;2024-01-30T10:42:55;101933.66;;;2.66;100.00
25658;BME280;13517;59.320;18.042;2024-01-30T10:45:22;101972.53;;;2.87;100.00
25658;BME280;13517;59.320;18.042;2024-01-30T10:47:53;101930.25;;;2.51;100.00
25658;BME280;13517;59.320;18.042;2024-01-30T10:50:19;101977.97;;;2.78;100.00
25658;BME280;13517;59.320;18.042;2024-01-30T10:52:46;101948.63;;;2.76;100.00
25658;BME280;13517;59.320;18.042;2024-01-30T10:55:13;101963.50;;;2.97;100.00
25658;BME280;13517;59.320;18.042;2024-01-30T10:57:40;101921.00;;;2.80;100.00
25658;BME280;13517;59.320;18.042;2024-01-30T11:00:08;101960.84;;;2.96;100.00
25658;BME280;13517;59.320;18.042;2024-01-30T11:02:40;101897.19;;;2.65;100.00
25658;BME280;13517;59.320;18.042;2024-01-30T11:05:07;101958.03;;;3.07;100.00
25658;BME280;13517;59.320;18.042;2024-01-30T11:07:33;101933.09;;;3.09;100.00
25658;BME280;13517;59.320;18.042;2024-01-30T11:10:00;101912.63;;;3.10;100.00
25658;BME280;13517;59.320;18.042;2024-01-30T11:12:27;101907.06;;;3.24;100.00
25658;BME280;13517;59.320;18.042;2024-01-30T11:15:13;101926.50;;;3.35;100.00
25658;BME280;13517;59.320;18.042;2024-01-30T11:17:47;101923.56;;;3.51;100.00
25658;BME280;13517;59.320;18.042;2024-01-30T11:20:25;101885.41;;;3.43;100.00
25658;BME280;13517;59.320;18.042;2024-01-30T11:22:52;101879.06;;;3.50;100.00
25658;BME280;13517;59.320;18.042;2024-01-30T11:25:20;101877.31;;;3.47;100.00
25658;BME280;13517;59.320;18.042;2024-01-30T11:27:47;101917.88;;;3.71;100.00
25658;BME280;13517;59.320;18.042;2024-01-30T11:33:10;101908.91;;;3.77;100.00
25658;BME280;13517;59.320;18.042;2024-01-30T11:35:43;101911.50;;;3.80;100.00
25658;BME280;13517;59.320;18.042;2024-01-30T11:38:13;101907.00;;;3.82;100.00
25658;BME280;13517;59.320;18.042;2024-01-30T11:40:39;101886.66;;;3.75;100.00
25658;BME280;13517;59.320;18.042;2024-01-30T11:43:07;101869.06;;;3.61;100.00
25658;BME280;13517;59.320;18.042;2024-01-30T11:45:33;101868.00;;;3.72;100.00
25658;BME280;13517;59.320;18.042;2024-01-30T11:47:59;101889.06;;;3.90;100.00
25658;BME280;13517;59.320;18.042;2024-01-30T11:50:26;101844.03;;;3.67;100.00
25658;BME280;13517;59.320;18.042;2024-01-30T11:52:54;101886.13;;;4.04;100.00
25658;BME280;13517;59.320;18.042;2024-01-30T11:55:20;101838.44;;;3.81;100.00
25658;BME280;13517;59.320;18.042;2024-01-30T11:57:45;101838.31;;;3.87;100.00
25658;BME280;13517;59.320;18.042;2024-01-30T12:00:14;101854.34;;;3.87;100.00
25658;BME280;13517;59.320;18.042;2024-01-30T12:02:40;101883.44;;;4.06;100.00
25658;BME280;13517;59.320;18.042;2024-01-30T12:05:06;101874.44;;;4.10;100.00
25658;BME280;13517;59.320;18.042;2024-01-30T12:07:33;101861.84;;;4.15;100.00
25658;BME280;13517;59.320;18.042;2024-01-30T12:09:58;101850.53;;;4.01;100.00
25658;BME280;13517;59.320;18.042;2024-01-30T12:12:25;101845.19;;;4.01;100.00
25658;BME280;13517;59.320;18.042;2024-01-30T12:14:51;101870.66;;;4.22;100.00
25658;BME280;13517;59.320;18.042;2024-01-30T12:17:31;101824.00;;;3.91;100.00
25658;BME280;13517;59.320;18.042;2024-01-30T12:20:07;101867.16;;;4.18;100.00
25658;BME280;13517;59.320;18.042;2024-01-30T12:22:43;101849.00;;;3.87;100.00
25658;BME280;13517;59.320;18.042;2024-01-30T12:25:09;101869.25;;;4.01;100.00
25658;BME280;13517;59.320;18.042;2024-01-30T12:27:39;101813.44;;;3.82;100.00
25658;BME280;13517;59.320;18.042;2024-01-30T12:30:09;101855.69;;;4.10;100.00
25658;BME280;13517;59.320;18.042;2024-01-30T12:32:35;101804.66;;;3.77;100.00
25658;BME280;13517;59.320;18.042;2024-01-30T12:35:01;101814.44;;;3.78;100.00
25658;BME280;13517;59.320;18.042;2024-01-30T12:37:27;101827.63;;;3.86;100.00